sensor_id;sensor_type;location;lat;lon;timestamp;P1;durP1;ratioP1;P2;durP2;ratioP2
4939;SDS011;2485;49.326;7.214;2023-05-17T00:01:44;6.83;;;2.27;;
4939;SDS011;2485;49.326;7.214;2023-05-17T00:04:10;6.60;;;2.53;;
4939;SDS011;2485;49.326;7.214;2023-05-17T00:06:37;6.87;;;2.40;;
4939;SDS011;2485;49.326;7.214;2023-05-17T00:09:03;7.07;;;2.10;;
4939;SDS011;2485;49.326;7.214;2023-05-17T00:11:29;8.63;;;2.70;;
4939;SDS011;2485;49.326;7.214;2023-05-17T00:13:56;3.60;;;2.27;;
4939;SDS011;2485;49.326;7.214;2023-05-17T00:16:22;5.83;;;2.40;;
4939;SDS011;2485;49.326;7.214;2023-05-17T00:18:50;3.03;;;2.17;;
4939;SDS011;2485;49.326;7.214;2023-05-17T00:21:16;12.23;;;3.00;;
4939;SDS011;2485;49.326;7.214;2023-05-17T00:23:42;6.20;;;2.50;;
4939;SDS011;2485;49.326;7.214;2023-05-17T00:26:09;4.90;;;3.33;;
4939;SDS011;2485;49.326;7.214;2023-05-17T00:28:35;4.30;;;2.40;;
4939;SDS011;2485;49.326;7.214;2023-05-17T00:31:01;6.13;;;2.77;;
4939;SDS011;2485;49.326;7.214;2023-05-17T00:33:28;5.37;;;2.37;;
4939;SDS011;2485;49.326;7.214;2023-05-17T00:35:56;7.53;;;2.03;;
4939;SDS011;2485;49.326;7.214;2023-05-17T00:38:22;5.63;;;2.30;;
4939;SDS011;2485;49.326;7.214;2023-05-17T00:40:48;5.87;;;2.73;;
4939;SDS011;2485;49.326;7.214;2023-05-17T00:43:15;9.60;;;2.87;;
4939;SDS011;2485;49.326;7.214;2023-05-17T00:45:41;5.17;;;1.90;;
4939;SDS011;2485;49.326;7.214;2023-05-17T00:48:08;9.50;;;2.63;;
4939;SDS011;2485;49.326;7.214;2023-05-17T00:50:34;6.10;;;3.10;;
4939;SDS011;2485;49.326;7.214;2023-05-17T00:53:02;6.50;;;2.53;;
4939;SDS011;2485;49.326;7.214;2023-05-17T00:55:29;6.53;;;2.50;;
4939;SDS011;2485;49.326;7.214;2023-05-17T00:57:55;6.80;;;2.73;;
4939;SDS011;2485;49.326;7.214;2023-05-17T01:00:21;7.50;;;2.63;;
4939;SDS011;2485;49.326;7.214;2023-05-17T01:02:48;6.73;;;3.07;;
4939;SDS011;2485;49.326;7.214;2023-05-17T01:05:15;11.03;;;2.47;;
4939;SDS011;2485;49.326;7.214;2023-05-17T01:07:42;5.80;;;2.70;;
4939;SDS011;2485;49.326;7.214;2023-05-17T01:10:10;7.67;;;2.30;;
4939;SDS011;2485;49.326;7.214;2023-05-17T01:12:40;7.10;;;2.40;;
4939;SDS011;2485;49.326;7.214;2023-05-17T01:15:11;8.87;;;2.50;;
4939;SDS011;2485;49.326;7.214;2023-05-17T01:17:39;5.63;;;2.30;;
4939;SDS011;2485;49.326;7.214;2023-05-17T01:20:10;7.47;;;2.60;;
4939;SDS011;2485;49.326;7.214;2023-05-17T01:22:42;5.07;;;2.23;;
4939;SDS011;2485;49.326;7.214;2023-05-17T01:25:15;6.63;;;2.50;;
4939;SDS011;2485;49.326;7.214;2023-05-17T01:27:46;3.60;;;2.20;;
4939;SDS011;2485;49.326;7.214;2023-05-17T01:30:14;5.20;;;2.67;;
4939;SDS011;2485;49.326;7.214;2023-05-17T01:32:42;6.20;;;2.60;;
4939;SDS011;2485;49.326;7.214;2023-05-17T01:35:09;6.70;;;2.50;;
4939;SDS011;2485;49.326;7.214;2023-05-17T01:37:36;9.03;;;2.33;;
4939;SDS011;2485;49.326;7.214;2023-05-17T01:40:02;9.00;;;2.97;;
4939;SDS011;2485;49.326;7.214;2023-05-17T01:42:30;4.07;;;2.30;;
4939;SDS011;2485;49.326;7.214;2023-05-17T01:45:02;4.33;;;2.53;;
4939;SDS011;2485;49.326;7.214;2023-05-17T01:47:31;4.00;;;2.40;;
4939;SDS011;2485;49.326;7.214;2023-05-17T01:49:59;8.80;;;3.07;;
4939;SDS011;2485;49.326;7.214;2023-05-17T01:52:27;7.63;;;2.93;;
4939;SDS011;2485;49.326;7.214;2023-05-17T01:55:08;4.70;;;2.53;;
4939;SDS011;2485;49.326;7.214;2023-05-17T01:57:36;7.87;;;3.33;;
4939;SDS011;2485;49.326;7.214;2023-05-17T02:00:05;3.30;;;2.27;;
4939;SDS011;2485;49.326;7.214;2023-05-17T02:02:32;9.10;;;2.93;;
4939;SDS011;2485;49.326;7.214;2023-05-17T02:04:58;6.07;;;2.80;;
4939;SDS011;2485;49.326;7.214;2023-05-17T02:07:24;5.97;;;2.77;;
4939;SDS011;2485;49.326;7.214;2023-05-17T02:09:51;10.27;;;3.03;;
4939;SDS011;2485;49.326;7.214;2023-05-17T02:12:17;7.23;;;2.43;;
4939;SDS011;2485;49.326;7.214;2023-05-17T02:14:43;7.63;;;3.27;;
4939;SDS011;2485;49.326;7.214;2023-05-17T02:17:11;6.73;;;2.30;;
4939;SDS011;2485;49.326;7.214;2023-05-17T02:19:37;7.00;;;2.60;;
4939;SDS011;2485;49.326;7.214;2023-05-17T02:22:04;14.50;;;3.70;;
4939;SDS011;2485;49.326;7.214;2023-05-17T02:24:30;4.60;;;2.30;;
4939;SDS011;2485;49.326;7.214;2023-05-17T02:26:56;9.73;;;2.97;;
4939;SDS011;2485;49.326;7.214;2023-05-17T02:29:23;9.27;;;2.90;;
4939;SDS011;2485;49.326;7.214;2023-05-17T02:31:49;5.10;;;2.40;;
4939;SDS011;2485;49.326;7.214;2023-05-17T02:34:17;5.50;;;2.67;;
4939;SDS011;2485;49.326;7.214;2023-05-17T02:36:43;7.43;;;2.80;;
4939;SDS011;2485;49.326;7.214;2023-05-17T02:39:10;5.60;;;2.53;;
4939;SDS011;2485;49.326;7.214;2023-05-17T02:41:36;7.97;;;2.50;;
4939;SDS011;2485;49.326;7.214;2023-05-17T02:44:02;8.50;;;3.03;;
4939;SDS011;2485;49.326;7.214;2023-05-17T02:46:29;6.70;;;3.43;;
4939;SDS011;2485;49.326;7.214;2023-05-17T02:48:55;11.87;;;3.33;;
4939;SDS011;2485;49.326;7.214;2023-05-17T02:51:23;6.50;;;3.10;;
4939;SDS011;2485;49.326;7.214;2023-05-17T02:53:49;5.53;;;2.77;;
4939;SDS011;2485;49.326;7.214;2023-05-17T02:56:16;4.00;;;2.77;;
4939;SDS011;2485;49.326;7.214;2023-05-17T02:58:42;5.30;;;2.77;;
4939;SDS011;2485;49.326;7.214;2023-05-17T03:01:08;10.93;;;3.73;;
4939;SDS011;2485;49.326;7.214;2023-05-17T03:03:35;8.27;;;2.90;;
4939;SDS011;2485;49.326;7.214;2023-05-17T03:06:01;6.77;;;2.80;;
4939;SDS011;2485;49.326;7.214;2023-05-17T03:08:30;13.40;;;3.70;;
4939;SDS011;2485;49.326;7.214;2023-05-17T03:10:56;6.40;;;3.40;;
4939;SDS011;2485;49.326;7.214;2023-05-17T03:13:22;9.33;;;3.00;;
4939;SDS011;2485;49.326;7.214;2023-05-17T03:15:49;6.10;;;2.70;;
4939;SDS011;2485;49.326;7.214;2023-05-17T03:18:15;6.63;;;3.00;;
4939;SDS011;2485;49.326;7.214;2023-05-17T03:20:42;5.43;;;3.20;;
4939;SDS011;2485;49.326;7.214;2023-05-17T03:23:08;5.63;;;3.00;;
4939;SDS011;2485;49.326;7.214;2023-05-17T03:25:36;5.07;;;3.07;;
4939;SDS011;2485;49.326;7.214;2023-05-17T03:28:02;4.13;;;2.23;;
4939;SDS011;2485;49.326;7.214;2023-05-17T03:30:29;15.97;;;3.20;;
4939;SDS011;2485;49.326;7.214;2023-05-17T03:32:55;8.03;;;3.30;;
4939;SDS011;2485;49.326;7.214;2023-05-17T03:35:21;7.30;;;3.53;;
4939;SDS011;2485;49.326;7.214;2023-05-17T03:37:48;7.53;;;3.40;;
4939;SDS011;2485;49.326;7.214;2023-05-17T03:40:14;5.03;;;3.07;;
4939;SDS011;2485;49.326;7.214;2023-05-17T03:42:42;9.10;;;3.10;;
4939;SDS011;2485;49.326;7.214;2023-05-17T03:45:09;7.00;;;3.23;;
4939;SDS011;2485;49.326;7.214;2023-05-17T03:47:35;9.03;;;3.33;;
4939;SDS011;2485;49.326;7.214;2023-05-17T03:50:02;12.27;;;3.47;;
4939;SDS011;2485;49.326;7.214;2023-05-17T03:52:28;5.87;;;2.60;;
4939;SDS011;2485;49.326;7.214;2023-05-17T03:54:54;7.47;;;3.60;;
4939;SDS011;2485;49.326;7.214;2023-05-17T03:57:21;5.77;;;3.10;;
4939;SDS011;2485;49.326;7.214;2023-05-17T03:59:48;5.60;;;3.53;;
4939;SDS011;2485;49.326;7.214;2023-05-17T04:02:15;13.70;;;3.90;;
4939;SDS011;2485;49.326;7.214;2023-05-17T04:04:47;9.17;;;4.00;;
4939;SDS011;2485;49.326;7.214;2023-05-17T04:07:13;9.77;;;4.57;;
4939;SDS011;2485;49.326;7.214;2023-05-17T04:09:40;6.20;;;4.20;;
4939;SDS011;2485;49.326;7.214;2023-05-17T04:12:07;8.63;;;4.17;;
4939;SDS011;2485;49.326;7.214;2023-05-17T04:14:34;9.23;;;4.20;;
4939;SDS011;2485;49.326;7.214;2023-05-17T04:17:02;7.00;;;3.83;;
4939;SDS011;2485;49.326;7.214;2023-05-17T04:19:29;7.03;;;3.90;;
4939;SDS011;2485;49.326;7.214;2023-05-17T04:21:55;10.10;;;4.10;;
4939;SDS011;2485;49.326;7.214;2023-05-17T04:24:21;8.50;;;4.30;;
4939;SDS011;2485;49.326;7.214;2023-05-17T04:26:48;12.67;;;5.23;;
4939;SDS011;2485;49.326;7.214;2023-05-17T04:29:14;10.03;;;4.80;;
4939;SDS011;2485;49.326;7.214;2023-05-17T04:31:42;8.70;;;4.37;;
4939;SDS011;2485;49.326;7.214;2023-05-17T04:34:09;11.87;;;4.90;;
4939;SDS011;2485;49.326;7.214;2023-05-17T04:36:36;13.03;;;5.67;;
4939;SDS011;2485;49.326;7.214;2023-05-17T04:39:02;8.63;;;4.27;;
4939;SDS011;2485;49.326;7.214;2023-05-17T04:41:29;7.73;;;4.27;;
4939;SDS011;2485;49.326;7.214;2023-05-17T04:43:57;8.73;;;3.77;;
4939;SDS011;2485;49.326;7.214;2023-05-17T04:46:23;8.00;;;3.97;;
4939;SDS011;2485;49.326;7.214;2023-05-17T04:48:50;6.07;;;3.07;;
4939;SDS011;2485;49.326;7.214;2023-05-17T04:51:18;5.20;;;3.40;;
4939;SDS011;2485;49.326;7.214;2023-05-17T04:53:45;7.90;;;2.77;;
4939;SDS011;2485;49.326;7.214;2023-05-17T04:56:13;5.97;;;3.30;;
4939;SDS011;2485;49.326;7.214;2023-05-17T04:58:40;8.73;;;3.50;;
4939;SDS011;2485;49.326;7.214;2023-05-17T05:01:06;9.97;;;3.00;;
4939;SDS011;2485;49.326;7.214;2023-05-17T05:03:33;10.47;;;3.67;;
4939;SDS011;2485;49.326;7.214;2023-05-17T05:06:00;7.70;;;4.10;;
4939;SDS011;2485;49.326;7.214;2023-05-17T05:08:29;8.83;;;4.70;;
4939;SDS011;2485;49.326;7.214;2023-05-17T05:10:55;8.47;;;3.83;;
4939;SDS011;2485;49.326;7.214;2023-05-17T05:13:22;9.27;;;4.17;;
4939;SDS011;2485;49.326;7.214;2023-05-17T05:15:48;8.37;;;3.70;;
4939;SDS011;2485;49.326;7.214;2023-05-17T05:18:14;5.70;;;3.50;;
4939;SDS011;2485;49.326;7.214;2023-05-17T05:20:41;5.80;;;3.37;;
4939;SDS011;2485;49.326;7.214;2023-05-17T05:23:08;6.90;;;3.63;;
4939;SDS011;2485;49.326;7.214;2023-05-17T05:25:36;7.20;;;3.70;;
4939;SDS011;2485;49.326;7.214;2023-05-17T05:28:02;4.93;;;3.60;;
4939;SDS011;2485;49.326;7.214;2023-05-17T05:30:29;10.73;;;3.50;;
4939;SDS011;2485;49.326;7.214;2023-05-17T05:32:56;9.60;;;3.40;;
4939;SDS011;2485;49.326;7.214;2023-05-17T05:35:23;11.23;;;3.73;;
4939;SDS011;2485;49.326;7.214;2023-05-17T05:37:53;6.40;;;3.27;;
4939;SDS011;2485;49.326;7.214;2023-05-17T05:40:20;6.70;;;3.60;;
4939;SDS011;2485;49.326;7.214;2023-05-17T05:42:48;7.43;;;3.20;;
4939;SDS011;2485;49.326;7.214;2023-05-17T05:45:14;7.97;;;3.13;;
4939;SDS011;2485;49.326;7.214;2023-05-17T05:47:40;7.03;;;3.20;;
4939;SDS011;2485;49.326;7.214;2023-05-17T05:50:07;11.53;;;3.53;;
4939;SDS011;2485;49.326;7.214;2023-05-17T05:52:34;10.40;;;3.57;;
4939;SDS011;2485;49.326;7.214;2023-05-17T05:55:00;5.87;;;3.10;;
4939;SDS011;2485;49.326;7.214;2023-05-17T05:57:26;4.87;;;3.00;;
4939;SDS011;2485;49.326;7.214;2023-05-17T05:59:54;9.90;;;3.70;;
4939;SDS011;2485;49.326;7.214;2023-05-17T06:02:21;9.30;;;3.23;;
4939;SDS011;2485;49.326;7.214;2023-05-17T06:04:47;7.60;;;3.30;;
4939;SDS011;2485;49.326;7.214;2023-05-17T06:07:13;8.27;;;3.70;;
4939;SDS011;2485;49.326;7.214;2023-05-17T06:09:40;8.53;;;3.23;;
4939;SDS011;2485;49.326;7.214;2023-05-17T06:12:06;7.97;;;3.70;;
4939;SDS011;2485;49.326;7.214;2023-05-17T06:14:33;5.53;;;2.97;;
4939;SDS011;2485;49.326;7.214;2023-05-17T06:17:03;7.63;;;3.03;;
4939;SDS011;2485;49.326;7.214;2023-05-17T06:19:29;6.73;;;3.33;;
4939;SDS011;2485;49.326;7.214;2023-05-17T06:21:55;9.33;;;3.33;;
4939;SDS011;2485;49.326;7.214;2023-05-17T06:24:22;10.40;;;3.40;;
4939;SDS011;2485;49.326;7.214;2023-05-17T06:26:48;7.07;;;3.80;;
4939;SDS011;2485;49.326;7.214;2023-05-17T06:29:15;7.47;;;3.37;;
4939;SDS011;2485;49.326;7.214;2023-05-17T06:31:41;8.90;;;3.60;;
4939;SDS011;2485;49.326;7.214;2023-05-17T06:34:09;10.37;;;3.53;;
4939;SDS011;2485;49.326;7.214;2023-05-17T06:36:35;9.10;;;3.73;;
4939;SDS011;2485;49.326;7.214;2023-05-17T06:39:03;7.30;;;3.40;;
4939;SDS011;2485;49.326;7.214;2023-05-17T06:41:30;6.30;;;2.93;;
4939;SDS011;2485;49.326;7.214;2023-05-17T06:43:56;11.53;;;4.13;;
4939;SDS011;2485;49.326;7.214;2023-05-17T06:46:23;9.63;;;3.50;;
4939;SDS011;2485;49.326;7.214;2023-05-17T06:48:49;9.50;;;3.77;;
4939;SDS011;2485;49.326;7.214;2023-05-17T06:51:17;7.07;;;2.73;;
4939;SDS011;2485;49.326;7.214;2023-05-17T06:53:43;9.50;;;3.40;;
4939;SDS011;2485;49.326;7.214;2023-05-17T06:56:10;6.33;;;3.20;;
4939;SDS011;2485;49.326;7.214;2023-05-17T06:58:36;12.43;;;4.00;;
4939;SDS011;2485;49.326;7.214;2023-05-17T07:01:02;10.00;;;3.60;;
4939;SDS011;2485;49.326;7.214;2023-05-17T07:03:29;13.03;;;5.53;;
4939;SDS011;2485;49.326;7.214;2023-05-17T07:05:58;8.10;;;3.50;;
4939;SDS011;2485;49.326;7.214;2023-05-17T07:08:26;12.07;;;4.23;;
4939;SDS011;2485;49.326;7.214;2023-05-17T07:10:52;18.43;;;3.27;;
4939;SDS011;2485;49.326;7.214;2023-05-17T07:13:19;9.53;;;4.23;;
4939;SDS011;2485;49.326;7.214;2023-05-17T07:15:45;13.10;;;4.90;;
4939;SDS011;2485;49.326;7.214;2023-05-17T07:18:12;5.90;;;3.37;;
4939;SDS011;2485;49.326;7.214;2023-05-17T07:20:38;8.30;;;3.77;;
4939;SDS011;2485;49.326;7.214;2023-05-17T07:23:04;8.40;;;3.90;;
4939;SDS011;2485;49.326;7.214;2023-05-17T07:25:33;10.97;;;4.07;;
4939;SDS011;2485;49.326;7.214;2023-05-17T07:28:02;10.27;;;3.87;;
4939;SDS011;2485;49.326;7.214;2023-05-17T07:30:29;12.33;;;3.83;;
4939;SDS011;2485;49.326;7.214;2023-05-17T07:32:55;13.27;;;4.27;;
4939;SDS011;2485;49.326;7.214;2023-05-17T07:35:21;8.70;;;3.50;;
4939;SDS011;2485;49.326;7.214;2023-05-17T07:37:48;9.60;;;4.30;;
4939;SDS011;2485;49.326;7.214;2023-05-17T07:40:14;16.13;;;6.00;;
4939;SDS011;2485;49.326;7.214;2023-05-17T07:42:42;13.23;;;4.57;;
4939;SDS011;2485;49.326;7.214;2023-05-17T07:45:08;11.50;;;4.30;;
4939;SDS011;2485;49.326;7.214;2023-05-17T07:47:35;9.00;;;4.40;;
4939;SDS011;2485;49.326;7.214;2023-05-17T07:50:01;7.33;;;4.17;;
4939;SDS011;2485;49.326;7.214;2023-05-17T07:52:28;12.23;;;4.37;;
4939;SDS011;2485;49.326;7.214;2023-05-17T07:54:54;6.50;;;3.90;;
4939;SDS011;2485;49.326;7.214;2023-05-17T07:57:21;7.30;;;4.30;;
4939;SDS011;2485;49.326;7.214;2023-05-17T07:59:48;8.27;;;4.07;;
4939;SDS011;2485;49.326;7.214;2023-05-17T08:02:15;14.13;;;4.40;;
4939;SDS011;2485;49.326;7.214;2023-05-17T08:04:41;7.60;;;4.57;;
4939;SDS011;2485;49.326;7.214;2023-05-17T08:07:07;9.27;;;3.90;;
4939;SDS011;2485;49.326;7.214;2023-05-17T08:09:34;18.33;;;4.80;;
4939;SDS011;2485;49.326;7.214;2023-05-17T08:12:00;13.03;;;3.60;;
4939;SDS011;2485;49.326;7.214;2023-05-17T08:14:27;8.90;;;4.10;;
4939;SDS011;2485;49.326;7.214;2023-05-17T08:16:54;14.77;;;4.47;;
4939;SDS011;2485;49.326;7.214;2023-05-17T08:19:21;6.67;;;3.50;;
4939;SDS011;2485;49.326;7.214;2023-05-17T08:21:47;9.37;;;3.93;;
4939;SDS011;2485;49.326;7.214;2023-05-17T08:24:13;8.50;;;2.93;;
4939;SDS011;2485;49.326;7.214;2023-05-17T08:26:41;8.73;;;3.37;;
4939;SDS011;2485;49.326;7.214;2023-05-17T08:29:08;4.57;;;2.40;;
4939;SDS011;2485;49.326;7.214;2023-05-17T08:31:34;8.20;;;3.97;;
4939;SDS011;2485;49.326;7.214;2023-05-17T08:34:02;10.30;;;3.20;;
4939;SDS011;2485;49.326;7.214;2023-05-17T08:36:28;5.70;;;3.00;;
4939;SDS011;2485;49.326;7.214;2023-05-17T08:38:54;9.60;;;2.73;;
4939;SDS011;2485;49.326;7.214;2023-05-17T08:41:21;2.53;;;2.00;;
4939;SDS011;2485;49.326;7.214;2023-05-17T08:43:47;3.33;;;2.73;;
4939;SDS011;2485;49.326;7.214;2023-05-17T08:46:14;3.93;;;2.43;;
4939;SDS011;2485;49.326;7.214;2023-05-17T08:48:41;3.77;;;2.00;;
4939;SDS011;2485;49.326;7.214;2023-05-17T08:51:10;5.30;;;2.50;;
4939;SDS011;2485;49.326;7.214;2023-05-17T08:53:36;3.00;;;2.50;;
4939;SDS011;2485;49.326;7.214;2023-05-17T08:56:03;3.20;;;2.03;;
4939;SDS011;2485;49.326;7.214;2023-05-17T08:58:32;8.63;;;2.30;;
4939;SDS011;2485;49.326;7.214;2023-05-17T09:00:59;6.93;;;3.17;;
4939;SDS011;2485;49.326;7.214;2023-05-17T09:03:26;8.07;;;3.10;;
4939;SDS011;2485;49.326;7.214;2023-05-17T09:05:54;9.73;;;3.60;;
4939;SDS011;2485;49.326;7.214;2023-05-17T09:08:22;6.80;;;2.40;;
4939;SDS011;2485;49.326;7.214;2023-05-17T09:10:48;3.73;;;2.63;;
4939;SDS011;2485;49.326;7.214;2023-05-17T09:13:15;4.90;;;2.73;;
4939;SDS011;2485;49.326;7.214;2023-05-17T09:15:41;9.23;;;3.10;;
4939;SDS011;2485;49.326;7.214;2023-05-17T09:18:09;6.33;;;3.20;;
4939;SDS011;2485;49.326;7.214;2023-05-17T09:20:36;5.80;;;3.10;;
4939;SDS011;2485;49.326;7.214;2023-05-17T09:23:04;4.37;;;2.00;;
4939;SDS011;2485;49.326;7.214;2023-05-17T09:25:32;11.70;;;3.37;;
4939;SDS011;2485;49.326;7.214;2023-05-17T09:27:59;5.77;;;2.80;;
4939;SDS011;2485;49.326;7.214;2023-05-17T09:30:26;9.33;;;2.57;;
4939;SDS011;2485;49.326;7.214;2023-05-17T09:32:53;5.30;;;2.90;;
4939;SDS011;2485;49.326;7.214;2023-05-17T09:35:26;8.63;;;3.27;;
4939;SDS011;2485;49.326;7.214;2023-05-17T09:37:52;7.80;;;3.30;;
4939;SDS011;2485;49.326;7.214;2023-05-17T09:40:22;8.10;;;3.27;;
4939;SDS011;2485;49.326;7.214;2023-05-17T09:42:50;6.87;;;3.40;;
4939;SDS011;2485;49.326;7.214;2023-05-17T09:45:20;7.13;;;3.17;;
4939;SDS011;2485;49.326;7.214;2023-05-17T09:47:46;7.13;;;2.80;;
4939;SDS011;2485;49.326;7.214;2023-05-17T09:50:16;7.10;;;2.73;;
4939;SDS011;2485;49.326;7.214;2023-05-17T09:52:43;6.30;;;3.00;;
4939;SDS011;2485;49.326;7.214;2023-05-17T09:55:10;6.23;;;3.57;;
4939;SDS011;2485;49.326;7.214;2023-05-17T09:57:38;5.10;;;3.40;;
4939;SDS011;2485;49.326;7.214;2023-05-17T10:00:08;13.47;;;4.00;;
4939;SDS011;2485;49.326;7.214;2023-05-17T10:02:36;7.07;;;3.33;;
4939;SDS011;2485;49.326;7.214;2023-05-17T10:05:07;3.40;;;2.30;;
4939;SDS011;2485;49.326;7.214;2023-05-17T10:07:34;6.73;;;3.00;;
4939;SDS011;2485;49.326;7.214;2023-05-17T10:10:02;11.93;;;3.60;;
4939;SDS011;2485;49.326;7.214;2023-05-17T10:12:30;7.53;;;3.37;;
4939;SDS011;2485;49.326;7.214;2023-05-17T10:14:57;6.10;;;2.40;;
4939;SDS011;2485;49.326;7.214;2023-05-17T10:17:26;8.57;;;3.70;;
4939;SDS011;2485;49.326;7.214;2023-05-17T10:19:53;8.50;;;2.87;;
4939;SDS011;2485;49.326;7.214;2023-05-17T10:22:20;6.10;;;3.30;;
4939;SDS011;2485;49.326;7.214;2023-05-17T10:24:47;5.70;;;3.37;;
4939;SDS011;2485;49.326;7.214;2023-05-17T10:27:15;8.67;;;3.37;;
4939;SDS011;2485;49.326;7.214;2023-05-17T10:29:42;5.23;;;3.17;;
4939;SDS011;2485;49.326;7.214;2023-05-17T10:32:09;6.23;;;3.50;;
4939;SDS011;2485;49.326;7.214;2023-05-17T10:34:39;5.20;;;2.93;;
4939;SDS011;2485;49.326;7.214;2023-05-17T10:37:05;6.17;;;3.57;;
4939;SDS011;2485;49.326;7.214;2023-05-17T10:39:32;5.90;;;3.53;;
4939;SDS011;2485;49.326;7.214;2023-05-17T10:42:03;8.90;;;3.93;;
4939;SDS011;2485;49.326;7.214;2023-05-17T10:44:31;5.97;;;3.57;;
4939;SDS011;2485;49.326;7.214;2023-05-17T10:46:58;8.17;;;3.70;;
4939;SDS011;2485;49.326;7.214;2023-05-17T10:49:24;6.93;;;4.17;;
4939;SDS011;2485;49.326;7.214;2023-05-17T10:51:53;7.17;;;4.60;;
4939;SDS011;2485;49.326;7.214;2023-05-17T10:54:19;7.70;;;3.13;;
4939;SDS011;2485;49.326;7.214;2023-05-17T10:56:46;8.60;;;4.37;;
4939;SDS011;2485;49.326;7.214;2023-05-17T10:59:13;8.90;;;4.60;;
4939;SDS011;2485;49.326;7.214;2023-05-17T11:01:53;9.30;;;4.40;;
4939;SDS011;2485;49.326;7.214;2023-05-17T11:04:20;7.57;;;4.50;;
4939;SDS011;2485;49.326;7.214;2023-05-17T11:06:47;12.03;;;4.80;;
4939;SDS011;2485;49.326;7.214;2023-05-17T11:09:15;15.93;;;4.93;;
4939;SDS011;2485;49.326;7.214;2023-05-17T11:14:34;7.50;;;3.27;;
4939;SDS011;2485;49.326;7.214;2023-05-17T11:17:11;8.33;;;3.77;;
4939;SDS011;2485;49.326;7.214;2023-05-17T11:19:37;10.97;;;4.70;;
4939;SDS011;2485;49.326;7.214;2023-05-17T11:22:09;8.93;;;4.30;;
4939;SDS011;2485;49.326;7.214;2023-05-17T11:24:37;7.17;;;4.13;;
4939;SDS011;2485;49.326;7.214;2023-05-17T11:27:05;9.47;;;5.40;;
4939;SDS011;2485;49.326;7.214;2023-05-17T11:29:32;7.20;;;5.17;;
4939;SDS011;2485;49.326;7.214;2023-05-17T11:31:59;7.00;;;5.57;;
4939;SDS011;2485;49.326;7.214;2023-05-17T11:34:31;10.27;;;5.23;;
4939;SDS011;2485;49.326;7.214;2023-05-17T11:36:58;7.20;;;4.83;;
4939;SDS011;2485;49.326;7.214;2023-05-17T11:39:24;9.20;;;5.77;;
4939;SDS011;2485;49.326;7.214;2023-05-17T11:41:53;8.20;;;5.53;;
4939;SDS011;2485;49.326;7.214;2023-05-17T11:44:23;9.67;;;5.90;;
4939;SDS011;2485;49.326;7.214;2023-05-17T11:46:59;9.87;;;5.77;;
4939;SDS011;2485;49.326;7.214;2023-05-17T11:49:25;11.57;;;6.40;;
4939;SDS011;2485;49.326;7.214;2023-05-17T11:51:52;9.17;;;5.70;;
4939;SDS011;2485;49.326;7.214;2023-05-17T11:54:20;9.93;;;6.20;;
4939;SDS011;2485;49.326;7.214;2023-05-17T11:56:46;8.57;;;5.53;;
4939;SDS011;2485;49.326;7.214;2023-05-17T11:59:18;7.90;;;4.93;;
4939;SDS011;2485;49.326;7.214;2023-05-17T12:01:45;8.27;;;4.87;;
4939;SDS011;2485;49.326;7.214;2023-05-17T12:04:13;9.37;;;4.97;;
4939;SDS011;2485;49.326;7.214;2023-05-17T12:06:40;11.23;;;5.70;;
4939;SDS011;2485;49.326;7.214;2023-05-17T12:09:06;17.07;;;5.60;;
4939;SDS011;2485;49.326;7.214;2023-05-17T12:11:35;9.23;;;5.50;;
4939;SDS011;2485;49.326;7.214;2023-05-17T12:14:03;8.87;;;5.70;;
4939;SDS011;2485;49.326;7.214;2023-05-17T12:16:31;8.23;;;5.20;;
4939;SDS011;2485;49.326;7.214;2023-05-17T12:19:00;6.30;;;5.10;;
4939;SDS011;2485;49.326;7.214;2023-05-17T12:21:26;7.30;;;4.90;;
4939;SDS011;2485;49.326;7.214;2023-05-17T12:23:53;10.57;;;5.57;;
4939;SDS011;2485;49.326;7.214;2023-05-17T12:26:20;7.70;;;5.43;;
4939;SDS011;2485;49.326;7.214;2023-05-17T12:28:51;12.13;;;6.37;;
4939;SDS011;2485;49.326;7.214;2023-05-17T12:31:19;10.60;;;5.93;;
4939;SDS011;2485;49.326;7.214;2023-05-17T12:33:47;9.47;;;5.80;;
4939;SDS011;2485;49.326;7.214;2023-05-17T12:36:15;11.00;;;5.83;;
4939;SDS011;2485;49.326;7.214;2023-05-17T12:38:42;9.00;;;5.93;;
4939;SDS011;2485;49.326;7.214;2023-05-17T12:41:09;10.67;;;5.70;;
4939;SDS011;2485;49.326;7.214;2023-05-17T12:43:37;8.30;;;5.30;;
4939;SDS011;2485;49.326;7.214;2023-05-17T12:46:04;12.87;;;5.93;;
4939;SDS011;2485;49.326;7.214;2023-05-17T12:48:32;9.53;;;5.30;;
4939;SDS011;2485;49.326;7.214;2023-05-17T12:51:05;9.13;;;5.30;;
4939;SDS011;2485;49.326;7.214;2023-05-17T12:53:35;8.60;;;5.37;;
4939;SDS011;2485;49.326;7.214;2023-05-17T12:56:02;12.13;;;5.73;;
4939;SDS011;2485;49.326;7.214;2023-05-17T12:58:29;12.20;;;5.63;;
4939;SDS011;2485;49.326;7.214;2023-05-17T13:00:56;8.10;;;5.20;;
4939;SDS011;2485;49.326;7.214;2023-05-17T13:03:23;9.50;;;5.80;;
4939;SDS011;2485;49.326;7.214;2023-05-17T13:05:56;15.33;;;5.40;;
4939;SDS011;2485;49.326;7.214;2023-05-17T13:08:24;9.57;;;4.90;;
4939;SDS011;2485;49.326;7.214;2023-05-17T13:10:51;10.30;;;4.60;;
4939;SDS011;2485;49.326;7.214;2023-05-17T13:13:18;9.80;;;5.87;;
4939;SDS011;2485;49.326;7.214;2023-05-17T13:15:45;10.90;;;4.80;;
4939;SDS011;2485;49.326;7.214;2023-05-17T13:18:11;8.70;;;4.70;;
4939;SDS011;2485;49.326;7.214;2023-05-17T13:20:38;6.53;;;3.80;;
4939;SDS011;2485;49.326;7.214;2023-05-17T13:23:05;6.10;;;3.97;;
4939;SDS011;2485;49.326;7.214;2023-05-17T13:25:33;6.83;;;4.40;;
4939;SDS011;2485;49.326;7.214;2023-05-17T13:28:00;7.97;;;3.90;;
4939;SDS011;2485;49.326;7.214;2023-05-17T13:30:27;4.50;;;2.47;;
4939;SDS011;2485;49.326;7.214;2023-05-17T13:32:54;5.13;;;3.50;;
4939;SDS011;2485;49.326;7.214;2023-05-17T13:35:21;11.00;;;4.00;;
4939;SDS011;2485;49.326;7.214;2023-05-17T13:37:48;8.60;;;4.27;;
4939;SDS011;2485;49.326;7.214;2023-05-17T13:40:14;7.27;;;3.70;;
4939;SDS011;2485;49.326;7.214;2023-05-17T13:42:42;6.80;;;3.67;;
4939;SDS011;2485;49.326;7.214;2023-05-17T13:45:09;6.80;;;4.00;;
4939;SDS011;2485;49.326;7.214;2023-05-17T13:47:37;6.60;;;3.10;;
4939;SDS011;2485;49.326;7.214;2023-05-17T13:50:04;8.53;;;4.13;;
4939;SDS011;2485;49.326;7.214;2023-05-17T13:52:31;11.60;;;4.50;;
4939;SDS011;2485;49.326;7.214;2023-05-17T13:54:57;8.70;;;3.90;;
4939;SDS011;2485;49.326;7.214;2023-05-17T13:57:24;6.73;;;3.50;;
4939;SDS011;2485;49.326;7.214;2023-05-17T13:59:52;6.60;;;3.60;;
4939;SDS011;2485;49.326;7.214;2023-05-17T14:02:18;7.30;;;3.90;;
4939;SDS011;2485;49.326;7.214;2023-05-17T14:04:45;5.80;;;3.70;;
4939;SDS011;2485;49.326;7.214;2023-05-17T14:07:12;7.07;;;4.23;;
4939;SDS011;2485;49.326;7.214;2023-05-17T14:09:39;7.27;;;4.03;;
4939;SDS011;2485;49.326;7.214;2023-05-17T14:12:05;7.00;;;4.00;;
4939;SDS011;2485;49.326;7.214;2023-05-17T14:14:32;8.10;;;4.93;;
4939;SDS011;2485;49.326;7.214;2023-05-17T14:17:00;7.33;;;4.60;;
4939;SDS011;2485;49.326;7.214;2023-05-17T14:19:26;5.77;;;3.67;;
4939;SDS011;2485;49.326;7.214;2023-05-17T14:21:52;8.57;;;4.13;;
4939;SDS011;2485;49.326;7.214;2023-05-17T14:24:19;6.90;;;3.90;;
4939;SDS011;2485;49.326;7.214;2023-05-17T14:26:45;7.43;;;3.90;;
4939;SDS011;2485;49.326;7.214;2023-05-17T14:29:12;7.90;;;4.40;;
4939;SDS011;2485;49.326;7.214;2023-05-17T14:31:38;5.73;;;3.47;;
4939;SDS011;2485;49.326;7.214;2023-05-17T14:34:06;6.97;;;3.80;;
4939;SDS011;2485;49.326;7.214;2023-05-17T14:36:33;7.80;;;4.13;;
4939;SDS011;2485;49.326;7.214;2023-05-17T14:39:00;7.03;;;4.13;;
4939;SDS011;2485;49.326;7.214;2023-05-17T14:41:27;6.20;;;3.73;;
4939;SDS011;2485;49.326;7.214;2023-05-17T14:43:54;8.67;;;3.60;;
4939;SDS011;2485;49.326;7.214;2023-05-17T14:46:21;7.60;;;4.40;;
4939;SDS011;2485;49.326;7.214;2023-05-17T14:48:48;6.67;;;4.20;;
4939;SDS011;2485;49.326;7.214;2023-05-17T14:51:17;7.10;;;3.63;;
4939;SDS011;2485;49.326;7.214;2023-05-17T14:53:43;7.37;;;3.80;;
4939;SDS011;2485;49.326;7.214;2023-05-17T14:56:10;6.30;;;4.50;;
4939;SDS011;2485;49.326;7.214;2023-05-17T14:58:38;8.17;;;3.50;;
4939;SDS011;2485;49.326;7.214;2023-05-17T15:01:05;14.20;;;4.07;;
4939;SDS011;2485;49.326;7.214;2023-05-17T15:03:31;6.20;;;4.07;;
4939;SDS011;2485;49.326;7.214;2023-05-17T15:05:58;6.97;;;4.03;;
4939;SDS011;2485;49.326;7.214;2023-05-17T15:08:26;5.57;;;3.90;;
4939;SDS011;2485;49.326;7.214;2023-05-17T15:10:52;10.33;;;3.57;;
4939;SDS011;2485;49.326;7.214;2023-05-17T15:13:19;10.87;;;4.40;;
4939;SDS011;2485;49.326;7.214;2023-05-17T15:15:45;9.03;;;4.20;;